NCAR-RAP Real-Time Weather Data

Output produced by METARs form (23 February 2020  02:40 UTC)
found at http://weather.rap.ucar.edu/surface/
 
KLGA 230151Z 23006KT 10SM CLR 08/M14 A3020 RMK AO2 SLP226 T00781139
KLGA 230051Z 25007KT 10SM CLR 09/M15 A3019 RMK AO2 SLP224 T00891150
KLGA 222351Z 27010KT 10SM FEW250 09/M16 A3018 RMK AO2 SLP220 T00941161 10100 20072 53012
KLGA 222251Z 24009KT 10SM FEW250 09/M16 A3015 RMK AO2 SLP210 T00941156
KLGA 222151Z 24009KT 10SM FEW250 10/M16 A3014 RMK AO2 SLP207 T01001156
KLGA 222051Z 24010G18KT 10SM FEW250 10/M16 A3015 RMK AO2 SLP208 T01001156 56020
KLGA 221951Z 25011KT 10SM FEW250 09/M16 A3016 RMK AO2 SLP212 T00941156
KLGA 221851Z 24009KT 10SM FEW250 09/M15 A3017 RMK AO2 SLP217 T00891150
KLGA 221751Z 24008KT 10SM FEW250 07/M15 A3020 RMK AO2 SLP227 T00721150 10072 20006 58028
KLGA 221651Z 26008KT 10SM FEW250 06/M15 A3025 RMK AO2 SLP242 T00561150
KLGA 221551Z VRB05KT 10SM FEW250 04/M14 A3027 RMK AO2 SLP250 T00391144
KLGA 221451Z 27010KT 10SM FEW250 02/M14 A3029 RMK AO2 SLP256 T00221144 50002
KLGA 221351Z 28008KT 10SM FEW250 02/M15 A3030 RMK AO2 SLP259 T00171150
KLGA 221251Z 26007G16KT 10SM FEW250 01/M14 A3029 RMK AO2 SLP258 T00111139
KLGA 221151Z 25011G15KT 10SM FEW250 00/M14 A3028 RMK AO2 SLP254 T00001139 10011 20000 51006
KLGA 221051Z 27010KT 10SM CLR 00/M14 A3028 RMK AO2 SLP252 T00001139
KLGA 220951Z 27013KT 10SM CLR 00/M14 A3027 RMK AO2 SLP249 T00001139
KLGA 220851Z 24011G18KT 10SM CLR 01/M14 A3026 RMK AO2 SLP247 T00061139 56020
KLGA 220751Z 25012KT 10SM CLR 01/M14 A3028 RMK AO2 SLP252 T00111144
KLGA 220651Z 24010KT 10SM CLR 01/M14 A3030 RMK AO2 SLP261 T00061144
KLGA 220551Z 23011KT 10SM CLR 01/M15 A3032 RMK AO2 SLP267 T00061150 10017 20006 56018
KLGA 220451Z 24009KT 10SM CLR 01/M16 A3034 RMK AO2 SLP273 T00111156 400221061
KLGA 220351Z 22007KT 10SM CLR 01/M16 A3036 RMK AO2 SLP279 T00111156
KLGA 220251Z 25009KT 10SM CLR 01/M16 A3038 RMK AO2 SLP285 T00111161 58009
KLGA 220151Z 25009KT 10SM CLR 02/M16 A3039 RMK AO2 SLP292 T00171161
KLGA 220051Z 24008KT 10SM CLR 02/M16 A3040 RMK AO2 SLP292 T00171161
KLGA 212351Z 27010KT 10SM CLR 02/M17 A3040 RMK AO2 SLP294 T00171172 10022 21006 56005
KLGA 212251Z 24007KT 10SM CLR 02/M18 A3040 RMK AO2 SLP295 T00171183
KLGA 212151Z 29004KT 10SM CLR 02/M18 A3041 RMK AO2 SLP296 T00221183
KLGA 212051Z 30006KT 10SM CLR 02/M18 A3042 RMK AO2 SLP299 T00171183 56020
KLGA 211951Z 35005KT 10SM CLR 01/M20 A3043 RMK AO2 SLP304 T00111200
KLGA 211851Z 34005KT 10SM CLR 01/M18 A3045 RMK AO2 SLP311 T00061183
KLGA 211751Z 33009KT 10SM CLR M01/M19 A3048 RMK AO2 SLP319 T10061189 11006 21061 58014
KLGA 211651Z 01008KT 10SM CLR M01/M18 A3050 RMK AO2 SLP327 T10111178
KLGA 211551Z 36012G19KT 10SM CLR M03/M17 A3051 RMK AO2 SLP332 T10281167
KLGA 211451Z 35008KT 10SM CLR M04/M14 A3052 RMK AO2 SLP333 T10391139 51014
KLGA 211351Z 01007KT 10SM FEW040 M04/M13 A3050 RMK AO2 SLP329 T10441128
KLGA 211251Z 02009KT 10SM FEW017 M06/M13 A3050 RMK AO2 SLP327 T10561133
KLGA 211151Z 01011KT 10SM FEW012 M06/M14 A3047 RMK AO2 SLP319 T10611139 11033 21061 53009
KLGA 211051Z 36012KT 10SM FEW012 FEW250 M06/M14 A3046 RMK AO2 SLP315 T10561144
KLGA 210951Z 03011KT 10SM FEW250 M06/M14 A3045 RMK AO2 SLP310 T10561139
KLGA 210851Z 01008KT 10SM FEW250 M05/M14 A3045 RMK AO2 SLP310 T10501144 58001
KLGA 210751Z 34009KT 10SM FEW250 M04/M15 A3045 RMK AO2 SLP310 T10441150
KLGA 210651Z 34014G21KT 10SM FEW250 M04/M16 A3045 RMK AO2 SLP312 T10391156
KLGA 210551Z 35012KT 10SM SCT230 M03/M14 A3045 RMK AO2 SLP311 T10331144 10006 21033 50002
KLGA 210451Z 35014KT 10SM SCT250 M03/M14 A3045 RMK AO2 SLP311 T10281139 400171028
KLGA 210351Z 34015G19KT 10SM SCT220 SCT250 M02/M13 A3045 RMK AO2 SLP311 T10171128
KLGA 210251Z 36015G22KT 10SM FEW060 BKN220 BKN250 M01/M13 A3045 RMK AO2 SLP309 T10111133 53011